Time;durP1;ratioP1;P1;durP2;ratioP2;P2;SDS_P1;SDS_P2;PMS_P1;PMS_P2;Temp;Humidity;BMP_temperature;BMP_pressure;BME280_temperature;BME280_humidity;BME280_pressure;Samples;Min_cycle;Max_cycle;Signal;HPM_P1;HPM_P2
2023/10/20 00:03:46;;;;;;;12.93;8.00;;;14.10;98.10;;;;;;10520931;28;20761;-64
2023/10/20 00:08:47;;;;;;;12.32;8.13;;;14.10;98.00;;;;;;10519158;28;20766;-64
2023/10/20 00:13:48;;;;;;;14.07;8.47;;;14.10;98.10;;;;;;10545118;28;20421;-65
2023/10/20 00:18:48;;;;;;;13.53;8.73;;;14.10;98.10;;;;;;10512811;28;20397;-64
2023/10/20 00:23:49;;;;;;;13.48;8.52;;;14.00;98.00;;;;;;10538755;28;20407;-64
2023/10/20 00:28:49;;;;;;;13.13;8.33;;;14.00;98.10;;;;;;10541653;28;20929;-64
2023/10/20 00:33:50;;;;;;;12.80;8.90;;;14.00;98.10;;;;;;10540558;28;20819;-64
2023/10/20 00:38:50;;;;;;;14.07;8.57;;;14.00;98.10;;;;;;10535162;28;20409;-64
2023/10/20 00:43:51;;;;;;;13.63;8.57;;;14.00;98.20;;;;;;10534632;28;20393;-64
2023/10/20 00:48:52;;;;;;;13.60;8.60;;;14.00;98.40;;;;;;10540506;28;20555;-64
2023/10/20 00:53:53;;;;;;;14.03;8.60;;;13.90;98.10;;;;;;10541076;28;20396;-65
2023/10/20 00:58:54;;;;;;;15.27;9.15;;;13.90;98.20;;;;;;10521575;28;20416;-64
2023/10/20 01:03:54;;;;;;;13.25;8.63;;;13.90;98.20;;;;;;10534317;28;20389;-64
2023/10/20 01:08:56;;;;;;;13.47;8.67;;;13.90;98.20;;;;;;10529238;28;20402;-65
2023/10/20 01:13:57;;;;;;;15.67;9.00;;;13.90;98.20;;;;;;10535179;28;20715;-64
2023/10/20 01:19:00;;;;;;;14.70;9.07;;;13.90;98.20;;;;;;10539665;28;20392;-64
2023/10/20 01:24:02;;;;;;;14.67;9.33;;;13.90;98.20;;;;;;10536812;28;20909;-64
2023/10/20 01:29:05;;;;;;;15.00;9.27;;;13.90;98.20;;;;;;10531743;28;20421;-64
2023/10/20 01:34:06;;;;;;;15.23;9.25;;;13.90;98.20;;;;;;10537582;28;20390;-64
2023/10/20 01:39:08;;;;;;;15.73;9.47;;;13.90;98.10;;;;;;10535379;28;20421;-64
2023/10/20 01:44:13;;;;;;;14.65;8.90;;;13.80;98.10;;;;;;10537853;28;20403;-64
2023/10/20 01:49:13;;;;;;;14.20;8.77;;;13.80;98.10;;;;;;10539536;28;20399;-64
2023/10/20 01:54:14;;;;;;;15.57;9.20;;;13.80;98.20;;;;;;10541964;28;20394;-64
2023/10/20 01:59:15;;;;;;;14.47;9.17;;;13.80;98.10;;;;;;10528007;28;20395;-64
2023/10/20 02:04:15;;;;;;;14.93;9.15;;;13.80;98.20;;;;;;10533410;28;20409;-64
2023/10/20 02:09:16;;;;;;;14.37;8.50;;;13.80;98.40;;;;;;10529809;28;20428;-64
2023/10/20 02:14:16;;;;;;;14.75;8.60;;;13.80;98.30;;;;;;10533471;28;21147;-64
2023/10/20 02:19:17;;;;;;;14.52;8.98;;;13.80;98.30;;;;;;10534467;28;21007;-64
2023/10/20 02:24:18;;;;;;;16.03;9.20;;;13.80;98.30;;;;;;10537788;28;20395;-64
2023/10/20 02:29:18;;;;;;;14.10;8.60;;;13.80;98.20;;;;;;10538407;28;20400;-64
2023/10/20 02:34:19;;;;;;;13.98;8.65;;;13.80;98.20;;;;;;10529880;28;20414;-64
2023/10/20 02:39:20;;;;;;;13.50;8.60;;;13.70;98.10;;;;;;10536817;28;20394;-64
2023/10/20 02:44:22;;;;;;;15.57;8.47;;;13.80;98.20;;;;;;10537150;28;20393;-64
2023/10/20 02:49:22;;;;;;;14.32;8.63;;;13.70;98.10;;;;;;10531476;28;20402;-64
2023/10/20 02:54:23;;;;;;;13.83;8.83;;;13.70;98.10;;;;;;10521723;28;20408;-65
2023/10/20 02:59:24;;;;;;;15.45;8.75;;;13.70;98.00;;;;;;10534637;28;20382;-63
2023/10/20 03:04:24;;;;;;;15.93;9.20;;;13.70;98.00;;;;;;10511933;28;20611;-64
2023/10/20 03:09:25;;;;;;;15.27;9.37;;;13.70;98.00;;;;;;10536963;28;20401;-64
2023/10/20 03:14:26;;;;;;;15.65;9.02;;;13.70;98.00;;;;;;10531930;28;20887;-64
2023/10/20 03:19:27;;;;;;;15.63;9.20;;;13.70;98.00;;;;;;10527634;28;20388;-64
2023/10/20 03:24:27;;;;;;;13.65;8.38;;;13.60;98.00;;;;;;10531408;28;20447;-64
2023/10/20 03:29:28;;;;;;;15.73;9.27;;;13.60;98.00;;;;;;10520145;28;20415;-63
2023/10/20 03:34:31;;;;;;;14.03;8.57;;;13.60;98.00;;;;;;10508686;28;20384;-63
2023/10/20 03:39:33;;;;;;;15.10;8.93;;;13.60;98.10;;;;;;10537447;28;20950;-63
2023/10/20 03:44:33;;;;;;;16.58;8.80;;;13.60;98.10;;;;;;10543391;28;20837;-64
2023/10/20 03:49:35;;;;;;;14.17;8.80;;;13.60;98.10;;;;;;10534264;28;20454;-64
2023/10/20 03:54:36;;;;;;;14.80;9.18;;;13.60;98.10;;;;;;10531258;28;20436;-63
2023/10/20 03:59:38;;;;;;;16.40;9.07;;;13.60;98.10;;;;;;10540351;28;20394;-64
2023/10/20 04:04:39;;;;;;;16.30;9.23;;;13.60;98.00;;;;;;10542794;28;20394;-64
2023/10/20 04:09:39;;;;;;;15.00;9.07;;;13.50;98.00;;;;;;10540115;28;20680;-64
2023/10/20 04:14:41;;;;;;;15.03;8.93;;;13.60;98.00;;;;;;10536496;28;20465;-64
2023/10/20 04:19:41;;;;;;;14.43;8.77;;;13.50;98.00;;;;;;10534021;28;20401;-64
2023/10/20 04:24:44;;;;;;;14.75;8.38;;;13.50;98.00;;;;;;10536299;28;20435;-64
2023/10/20 04:41:50;;;;;;;14.93;8.88;;;13.50;98.00;;;;;;10534017;28;20398;-64
2023/10/20 04:51:20;;;;;;;13.90;8.33;;;13.50;98.20;;;;;;10541258;28;20962;-64
2023/10/20 04:56:35;;;;;;;13.60;8.43;;;13.40;98.20;;;;;;10530587;28;20389;-64
2023/10/20 05:01:49;;;;;;;13.88;8.18;;;13.40;98.20;;;;;;10541145;28;20380;-64
2023/10/20 05:07:05;;;;;;;14.35;8.82;;;13.40;98.20;;;;;;10518968;28;20471;-64
2023/10/20 05:12:06;;;;;;;13.75;8.27;;;13.40;98.20;;;;;;10539610;28;20563;-63
2023/10/20 05:17:10;;;;;;;13.88;7.95;;;13.40;98.20;;;;;;10538065;28;21067;-64
2023/10/20 05:22:11;;;;;;;13.97;8.10;;;13.40;98.30;;;;;;10514357;28;20906;-64
2023/10/20 05:27:12;;;;;;;12.17;7.50;;;13.40;98.30;;;;;;10542361;28;20467;-64
2023/10/20 05:32:14;;;;;;;12.13;7.50;;;13.50;98.40;;;;;;10531416;28;20951;-64
2023/10/20 05:37:15;;;;;;;12.95;7.97;;;13.40;98.40;;;;;;10505939;28;20404;-64
2023/10/20 05:42:19;;;;;;;12.83;7.83;;;13.40;98.40;;;;;;10533663;28;20405;-64
2023/10/20 05:47:20;;;;;;;13.60;8.13;;;13.40;98.30;;;;;;10528909;28;20495;-64
2023/10/20 05:52:20;;;;;;;13.40;7.50;;;13.40;98.30;;;;;;10541975;28;21150;-64
2023/10/20 05:57:24;;;;;;;13.32;7.93;;;13.40;98.30;;;;;;10502530;28;20655;-63
2023/10/20 06:02:25;;;;;;;11.98;7.57;;;13.90;98.40;;;;;;10507515;28;20413;-64
2023/10/20 06:07:27;;;;;;;12.63;7.93;;;13.30;98.20;;;;;;10523933;28;20461;-64
2023/10/20 06:12:27;;;;;;;13.23;7.75;;;13.30;98.10;;;;;;10525950;28;20969;-64
2023/10/20 06:17:28;;;;;;;13.20;7.67;;;13.40;98.10;;;;;;10522245;28;20378;-64
2023/10/20 06:22:29;;;;;;;12.23;7.75;;;13.30;98.10;;;;;;10507690;28;20550;-64
2023/10/20 06:27:29;;;;;;;12.10;7.60;;;13.60;98.20;;;;;;10528666;28;20433;-64
2023/10/20 06:32:42;;;;;;;13.43;7.53;;;13.30;98.10;;;;;;10505063;28;20424;-63
2023/10/20 06:38:01;;;;;;;12.02;6.97;;;13.30;98.00;;;;;;10520856;28;20403;-65
2023/10/20 06:43:02;;;;;;;11.10;6.80;;;13.30;98.00;;;;;;10524614;28;20740;-64
2023/10/20 06:48:02;;;;;;;11.70;7.03;;;13.30;98.10;;;;;;10502803;28;20447;-64
2023/10/20 06:53:03;;;;;;;12.68;6.60;;;13.20;98.10;;;;;;10521321;28;20771;-64
2023/10/20 06:58:04;;;;;;;12.23;6.80;;;13.30;98.10;;;;;;10526792;28;20947;-63
2023/10/20 07:03:05;;;;;;;10.57;6.53;;;13.70;98.20;;;;;;10500647;28;20402;-64
2023/10/20 07:08:06;;;;;;;10.60;6.57;;;13.30;98.10;;;;;;10519703;28;20407;-63
2023/10/20 07:13:07;;;;;;;10.80;6.43;;;13.30;98.10;;;;;;10519626;28;20849;-63
2023/10/20 07:18:07;;;;;;;10.53;6.37;;;13.20;98.00;;;;;;10520099;28;20394;-63
2023/10/20 07:23:08;;;;;;;10.15;5.85;;;13.20;98.00;;;;;;10526672;28;20395;-64
2023/10/20 07:28:09;;;;;;;9.68;5.68;;;13.20;98.00;;;;;;10536471;28;20461;-63
2023/10/20 07:33:10;;;;;;;8.43;5.23;;;13.20;98.00;;;;;;10525239;28;20772;-64
2023/10/20 07:38:12;;;;;;;8.15;5.35;;;13.20;98.00;;;;;;10534263;28;20402;-63
2023/10/20 07:43:13;;;;;;;8.17;5.03;;;13.20;98.10;;;;;;10526498;28;20398;-63
2023/10/20 07:48:14;;;;;;;8.98;5.32;;;13.20;98.10;;;;;;10527058;28;20400;-64
2023/10/20 07:53:14;;;;;;;8.53;5.00;;;13.10;98.10;;;;;;10532649;28;20885;-64
2023/10/20 07:58:15;;;;;;;7.90;4.68;;;13.20;98.00;;;;;;10526349;28;20405;-64
2023/10/20 08:03:15;;;;;;;8.40;4.90;;;13.20;98.10;;;;;;10528967;28;20395;-64
2023/10/20 08:08:17;;;;;;;6.97;4.20;;;13.20;98.10;;;;;;10513483;28;20450;-63
2023/10/20 08:13:17;;;;;;;5.43;3.90;;;13.20;98.00;;;;;;10502656;28;20402;-64
2023/10/20 08:18:18;;;;;;;5.18;3.50;;;13.10;98.00;;;;;;10529103;28;20869;-64
2023/10/20 08:23:19;;;;;;;5.73;3.70;;;13.10;98.00;;;;;;10538414;28;20457;-64
2023/10/20 08:28:20;;;;;;;6.38;3.75;;;13.10;98.00;;;;;;10537159;28;20414;-64
2023/10/20 08:33:21;;;;;;;5.27;3.53;;;13.10;98.00;;;;;;10513707;28;20411;-64
2023/10/20 08:38:22;;;;;;;4.82;3.25;;;13.10;98.00;;;;;;10525977;28;21026;-64
2023/10/20 08:43:25;;;;;;;4.23;3.00;;;13.10;98.00;;;;;;10530015;28;20921;-64
2023/10/20 08:48:27;;;;;;;5.30;3.33;;;13.10;97.90;;;;;;10530871;28;20406;-63
2023/10/20 08:53:31;;;;;;;4.53;3.38;;;13.10;97.90;;;;;;10538304;28;20394;-64
2023/10/20 08:58:32;;;;;;;3.78;2.75;;;13.10;97.90;;;;;;10512935;28;20386;-63
2023/10/20 09:03:40;;;;;;;4.18;2.85;;;13.10;97.90;;;;;;10536853;28;20392;-63
2023/10/20 09:08:43;;;;;;;4.15;2.67;;;13.20;98.00;;;;;;10529331;28;20417;-64
2023/10/20 09:13:44;;;;;;;3.07;2.50;;;13.10;97.90;;;;;;10527605;28;20382;-64
2023/10/20 09:18:48;;;;;;;3.25;2.30;;;13.10;98.00;;;;;;10510061;28;20396;-64
2023/10/20 09:23:57;;;;;;;3.00;2.20;;;13.10;98.00;;;;;;10526298;28;20390;-64
2023/10/20 09:28:58;;;;;;;3.35;2.25;;;13.10;98.00;;;;;;10533699;28;20408;-64
2023/10/20 09:33:59;;;;;;;2.80;2.20;;;13.10;98.00;;;;;;10504593;28;20388;-63
2023/10/20 09:39:00;;;;;;;2.97;2.03;;;13.00;98.00;;;;;;10521099;28;20453;-64
2023/10/20 09:44:06;;;;;;;2.50;1.90;;;13.10;98.00;;;;;;10535013;28;20405;-64
2023/10/20 09:49:20;;;;;;;2.93;2.00;;;13.10;98.00;;;;;;10527659;28;21053;-64
2023/10/20 09:54:30;;;;;;;2.30;1.80;;;13.00;98.00;;;;;;10526731;28;20406;-64
2023/10/20 09:59:30;;;;;;;2.08;1.80;;;13.00;98.10;;;;;;10519222;28;20853;-64
2023/10/20 10:04:39;;;;;;;2.00;1.73;;;13.00;98.10;;;;;;10538157;28;20399;-64
2023/10/20 10:09:52;;;;;;;1.77;1.50;;;13.10;98.10;;;;;;10516435;28;20494;-64
2023/10/20 10:14:59;;;;;;;2.23;1.60;;;13.00;98.20;;;;;;10532790;28;20388;-65
2023/10/20 10:19:59;;;;;;;1.77;1.40;;;13.50;98.30;;;;;;10516021;28;20412;-64
2023/10/20 10:25:00;;;;;;;1.83;1.30;;;13.00;98.20;;;;;;10518059;28;20386;-64
2023/10/20 10:30:27;;;;;;;1.88;1.45;;;13.00;98.10;;;;;;10528795;28;20477;-65
2023/10/20 10:35:29;;;;;;;1.52;1.23;;;13.00;98.10;;;;;;10525476;28;20390;-64
2023/10/20 10:40:29;;;;;;;2.10;1.25;;;13.00;98.00;;;;;;10520967;28;20425;-64
2023/10/20 10:45:31;;;;;;;2.07;1.30;;;13.00;98.00;;;;;;10513351;28;20988;-64
2023/10/20 10:50:33;;;;;;;1.67;1.38;;;13.00;98.10;;;;;;10527957;28;20412;-64
2023/10/20 10:55:35;;;;;;;2.50;1.13;;;13.00;98.10;;;;;;10532850;28;20877;-65
2023/10/20 11:00:37;;;;;;;1.40;1.10;;;13.00;98.10;;;;;;10536241;28;20446;-64
2023/10/20 11:05:39;;;;;;;1.70;1.30;;;13.10;98.10;;;;;;10519876;28;20396;-64
2023/10/20 11:10:45;;;;;;;1.77;1.07;;;13.00;98.00;;;;;;10524803;28;20569;-65
2023/10/20 11:15:46;;;;;;;1.77;1.30;;;13.00;98.10;;;;;;10518413;28;20435;-64
2023/10/20 11:20:49;;;;;;;1.40;1.07;;;12.90;98.10;;;;;;10524485;28;20394;-64
2023/10/20 11:25:51;;;;;;;1.40;1.02;;;12.90;98.00;;;;;;10512842;28;20753;-64
2023/10/20 11:30:52;;;;;;;0.80;0.80;;;12.90;98.10;;;;;;10526176;28;20425;-64
2023/10/20 11:35:53;;;;;;;0.98;0.90;;;13.00;98.20;;;;;;10519071;28;20382;-64
2023/10/20 11:40:54;;;;;;;1.07;0.73;;;12.90;98.10;;;;;;10520798;28;20831;-64
2023/10/20 11:45:55;;;;;;;0.88;0.80;;;12.90;98.10;;;;;;10528820;28;20411;-64
2023/10/20 11:50:55;;;;;;;0.90;0.90;;;12.90;98.00;;;;;;10505678;28;20416;-64
2023/10/20 11:55:56;;;;;;;1.33;0.70;;;12.90;98.00;;;;;;10525618;28;20845;-64
2023/10/20 12:00:56;;;;;;;0.70;0.70;;;12.90;98.10;;;;;;10532541;28;20477;-64
2023/10/20 12:05:58;;;;;;;1.63;0.83;;;12.90;98.10;;;;;;10520660;28;20922;-64
2023/10/20 12:11:00;;;;;;;1.90;0.90;;;12.90;98.10;;;;;;10528941;28;20700;-64
2023/10/20 12:16:01;;;;;;;0.52;0.52;;;12.90;98.10;;;;;;10532973;28;20706;-64
2023/10/20 12:21:02;;;;;;;0.80;0.60;;;12.90;98.10;;;;;;10530951;28;20388;-65
2023/10/20 12:26:03;;;;;;;0.70;0.60;;;12.90;98.10;;;;;;10522355;28;20409;-64
2023/10/20 12:31:04;;;;;;;0.90;0.60;;;12.90;98.20;;;;;;10535159;28;20402;-65
2023/10/20 12:36:04;;;;;;;0.70;0.60;;;12.90;98.20;;;;;;10540879;28;20396;-64
2023/10/20 12:41:05;;;;;;;0.70;0.70;;;12.90;98.20;;;;;;10538900;28;20471;-64
2023/10/20 12:46:06;;;;;;;1.02;0.60;;;12.90;98.20;;;;;;10514791;28;20406;-64
2023/10/20 12:51:11;;;;;;;0.63;0.50;;;12.90;98.20;;;;;;10532526;28;20457;-64
2023/10/20 12:56:12;;;;;;;0.70;0.60;;;12.90;98.30;;;;;;10532478;28;20399;-64
2023/10/20 13:01:13;;;;;;;0.40;0.40;;;13.40;98.50;;;;;;10536016;28;20450;-64
2023/10/20 13:06:13;;;;;;;0.67;0.50;;;12.80;98.30;;;;;;10535431;28;20513;-64
2023/10/20 13:11:14;;;;;;;0.43;0.30;;;12.80;98.40;;;;;;10523199;28;20400;-64
2023/10/20 13:16:15;;;;;;;0.40;0.40;;;12.80;98.70;;;;;;10535995;28;20731;-64
2023/10/20 13:21:15;;;;;;;0.40;0.40;;;12.80;98.50;;;;;;10535210;28;20392;-64
2023/10/20 13:26:16;;;;;;;0.40;0.40;;;12.80;98.40;;;;;;10524557;28;20454;-64
2023/10/20 13:31:21;;;;;;;0.50;0.50;;;13.00;98.50;;;;;;10526056;28;20888;-64
2023/10/20 13:36:22;;;;;;;0.60;0.32;;;12.80;98.40;;;;;;10527728;28;20458;-63
2023/10/20 13:41:23;;;;;;;0.40;0.30;;;12.80;98.40;;;;;;10530695;28;20400;-64
2023/10/20 13:46:24;;;;;;;0.50;0.37;;;12.80;98.40;;;;;;10532494;28;20461;-64
2023/10/20 13:51:24;;;;;;;0.30;0.30;;;12.80;98.40;;;;;;10536345;28;20402;-65
2023/10/20 13:56:25;;;;;;;0.50;0.40;;;12.70;98.40;;;;;;10529970;28;20419;-64
2023/10/20 14:01:26;;;;;;;0.90;0.40;;;12.80;98.40;;;;;;10531124;28;20821;-65
2023/10/20 14:06:26;;;;;;;0.40;0.30;;;12.70;98.40;;;;;;10525687;28;20982;-64
2023/10/20 14:11:27;;;;;;;1.20;0.30;;;12.70;98.40;;;;;;10507479;28;20408;-65
2023/10/20 14:16:28;;;;;;;0.40;0.30;;;12.70;98.40;;;;;;10529284;28;20380;-64
2023/10/20 14:21:28;;;;;;;0.40;0.23;;;12.70;98.50;;;;;;10509264;28;20408;-64
2023/10/20 14:26:29;;;;;;;0.40;0.30;;;12.70;98.50;;;;;;10530547;28;20445;-64
2023/10/20 14:31:30;;;;;;;0.30;0.20;;;12.70;98.50;;;;;;10521054;28;20408;-64
2023/10/20 14:36:32;;;;;;;0.40;0.32;;;12.70;98.50;;;;;;10496301;28;20465;-64
2023/10/20 14:41:33;;;;;;;0.38;0.30;;;12.70;98.50;;;;;;10516048;28;20434;-64
2023/10/20 14:46:33;;;;;;;0.33;0.23;;;12.70;98.50;;;;;;10519525;28;20844;-64
2023/10/20 14:51:34;;;;;;;0.30;0.30;;;12.70;98.50;;;;;;10525860;28;20406;-64
2023/10/20 14:56:35;;;;;;;0.30;0.30;;;13.00;98.60;;;;;;10509658;28;20401;-64
2023/10/20 15:01:35;;;;;;;0.33;0.20;;;12.70;98.50;;;;;;10525015;28;20433;-64
2023/10/20 15:06:36;;;;;;;0.22;0.22;;;12.60;98.50;;;;;;10524381;28;20872;-64
2023/10/20 15:11:37;;;;;;;0.33;0.23;;;12.60;98.50;;;;;;10504988;28;20433;-64
2023/10/20 15:16:38;;;;;;;0.25;0.20;;;12.60;98.50;;;;;;10514600;28;20923;-64
2023/10/20 15:21:38;;;;;;;0.40;0.20;;;13.10;98.70;;;;;;10522226;28;20401;-65
2023/10/20 15:26:39;;;;;;;0.40;0.20;;;12.60;98.50;;;;;;10530076;28;20384;-64
2023/10/20 15:31:40;;;;;;;0.20;0.20;;;12.80;98.40;;;;;;10511334;28;20402;-66
2023/10/20 15:36:46;;;;;;;0.90;0.30;;;12.60;98.50;;;;;;10533111;28;20388;-65
2023/10/20 15:41:47;;;;;;;0.90;0.30;;;12.60;98.30;;;;;;10519915;28;20404;-64
2023/10/20 15:46:47;;;;;;;1.73;0.40;;;12.60;98.20;;;;;;10514780;28;20906;-66
2023/10/20 15:51:48;;;;;;;0.80;0.20;;;12.60;98.00;;;;;;10523510;28;20431;-66
2023/10/20 15:56:51;;;;;;;0.67;0.30;;;12.50;98.00;;;;;;10518462;28;20414;-66
2023/10/20 16:01:52;;;;;;;1.52;0.40;;;12.50;97.90;;;;;;10523262;28;20384;-65
2023/10/20 16:06:53;;;;;;;0.80;0.40;;;12.50;97.90;;;;;;10521191;28;20901;-64
2023/10/20 16:11:53;;;;;;;1.10;0.30;;;12.50;97.80;;;;;;10524906;28;20403;-65
2023/10/20 16:16:54;;;;;;;1.02;0.40;;;12.50;98.00;;;;;;10527999;28;20385;-65
2023/10/20 16:21:54;;;;;;;0.50;0.20;;;12.50;97.90;;;;;;10509268;28;21410;-65
2023/10/20 16:26:55;;;;;;;1.00;0.40;;;12.50;97.90;;;;;;10521232;28;20393;-65
2023/10/20 16:31:56;;;;;;;0.40;0.27;;;12.50;97.90;;;;;;10527013;28;20796;-65
2023/10/20 16:36:56;;;;;;;1.10;0.40;;;12.60;97.80;;;;;;10523947;28;20389;-65
2023/10/20 16:41:57;;;;;;;0.93;0.30;;;12.60;97.80;;;;;;10507782;28;20395;-65
2023/10/20 16:46:58;;;;;;;0.40;0.30;;;12.90;98.00;;;;;;10521824;28;20415;-65
2023/10/20 16:51:59;;;;;;;0.52;0.30;;;12.60;97.70;;;;;;10528288;28;20445;-65
2023/10/20 16:56:59;;;;;;;1.77;0.30;;;12.60;97.70;;;;;;10532118;28;20487;-65
2023/10/20 17:02:00;;;;;;;0.50;0.30;;;12.60;97.60;;;;;;10537295;28;20871;-67
2023/10/20 17:07:00;;;;;;;1.10;0.40;;;12.60;97.60;;;;;;10525532;28;20438;-64
2023/10/20 17:12:02;;;;;;;0.35;0.35;;;12.60;97.60;;;;;;10534842;28;20409;-64
2023/10/20 17:17:03;;;;;;;0.47;0.40;;;12.60;97.50;;;;;;10527393;28;20696;-65
2023/10/20 17:22:04;;;;;;;0.80;0.40;;;12.60;97.60;;;;;;10483775;28;20417;-65
2023/10/20 17:27:06;;;;;;;0.60;0.37;;;12.60;97.70;;;;;;10520960;28;20395;-65
2023/10/20 17:32:10;;;;;;;1.10;0.30;;;12.60;97.60;;;;;;10525657;28;20401;-66
2023/10/20 17:37:10;;;;;;;0.50;0.30;;;12.60;97.60;;;;;;10522862;28;20952;-67
2023/10/20 17:42:11;;;;;;;0.90;0.40;;;12.60;97.60;;;;;;10530510;28;20405;-64
2023/10/20 17:47:14;;;;;;;1.00;0.40;;;12.60;97.50;;;;;;10528449;28;21391;-65
2023/10/20 17:52:15;;;;;;;0.77;0.50;;;12.60;97.50;;;;;;10535838;28;20406;-65
2023/10/20 17:57:15;;;;;;;0.90;0.40;;;12.60;97.60;;;;;;10524601;28;20404;-64
2023/10/20 18:02:17;;;;;;;0.57;0.50;;;12.60;97.60;;;;;;10524961;28;20408;-65
2023/10/20 18:07:17;;;;;;;0.90;0.50;;;12.60;97.70;;;;;;10505954;28;20411;-65
2023/10/20 18:12:18;;;;;;;1.20;0.50;;;12.80;97.70;;;;;;10244966;28;20927;-64
2023/10/20 18:17:18;;;;;;;0.57;0.50;;;12.70;97.60;;;;;;10385253;28;20443;-64
2023/10/20 18:22:19;;;;;;;1.33;0.70;;;12.70;97.60;;;;;;10395506;28;20419;-65
2023/10/20 18:27:19;;;;;;;0.85;0.73;;;12.70;97.60;;;;;;10399667;28;20494;-64
2023/10/20 18:32:20;;;;;;;0.80;0.50;;;12.70;97.70;;;;;;10403340;28;20971;-65
2023/10/20 18:37:21;;;;;;;0.57;0.50;;;12.70;97.60;;;;;;10396665;28;20411;-65
2023/10/20 18:42:21;;;;;;;1.07;0.60;;;12.70;97.60;;;;;;10400858;28;20431;-64
2023/10/20 18:47:22;;;;;;;0.70;0.63;;;12.70;97.60;;;;;;10398208;28;20857;-65
2023/10/20 18:52:23;;;;;;;1.10;0.60;;;12.70;97.60;;;;;;10392103;28;20419;-65
2023/10/20 18:57:23;;;;;;;1.83;0.70;;;12.70;97.60;;;;;;10389218;28;20403;-65
2023/10/20 19:02:24;;;;;;;0.70;0.70;;;12.70;97.50;;;;;;10389251;28;20945;-65
2023/10/20 19:07:24;;;;;;;1.20;0.75;;;13.00;97.60;;;;;;10384161;28;20426;-64
2023/10/20 19:12:25;;;;;;;0.77;0.70;;;12.70;97.60;;;;;;10388333;28;20500;-65
2023/10/20 19:17:26;;;;;;;0.87;0.73;;;12.70;97.60;;;;;;10391897;28;20498;-64
2023/10/20 19:22:26;;;;;;;1.30;0.80;;;12.70;97.60;;;;;;10389370;28;20448;-64
2023/10/20 19:27:27;;;;;;;1.10;0.80;;;12.70;97.60;;;;;;10393816;28;20464;-65
2023/10/20 19:32:29;;;;;;;0.93;0.80;;;12.70;97.60;;;;;;10388478;28;20426;-65
2023/10/20 19:37:30;;;;;;;1.13;1.00;;;12.70;97.60;;;;;;10394632;28;20423;-64
2023/10/20 19:42:31;;;;;;;1.10;1.00;;;12.70;97.60;;;;;;10393525;28;20877;-64
2023/10/20 19:47:31;;;;;;;1.52;0.98;;;12.70;97.60;;;;;;10389048;28;20400;-65
2023/10/20 19:52:32;;;;;;;1.03;0.90;;;12.70;97.60;;;;;;10390711;28;20421;-65
2023/10/20 19:57:32;;;;;;;1.55;1.10;;;12.70;97.60;;;;;;10393247;28;20399;-64
2023/10/20 20:02:33;;;;;;;1.20;1.10;;;12.70;97.60;;;;;;10390943;28;20409;-65
2023/10/20 20:07:35;;;;;;;1.27;1.17;;;12.80;97.60;;;;;;10391567;28;20881;-65
2023/10/20 20:12:38;;;;;;;2.00;1.40;;;12.80;97.70;;;;;;10389820;28;20443;-65
2023/10/20 20:17:39;;;;;;;1.80;1.55;;;12.80;97.80;;;;;;10400131;28;20912;-64
2023/10/20 20:22:39;;;;;;;2.23;1.80;;;12.80;97.90;;;;;;10395169;28;20417;-64
2023/10/20 20:27:41;;;;;;;2.55;2.00;;;12.80;98.00;;;;;;10400958;28;20418;-64
2023/10/20 20:32:41;;;;;;;2.45;2.08;;;12.80;98.10;;;;;;10404321;28;20944;-65
2023/10/20 20:37:42;;;;;;;3.13;2.40;;;12.80;98.30;;;;;;10400775;28;20399;-64
2023/10/20 20:42:42;;;;;;;3.07;2.53;;;12.80;98.40;;;;;;10401007;28;20430;-65
2023/10/20 20:47:43;;;;;;;3.58;2.75;;;12.80;98.50;;;;;;10404242;28;20409;-65
2023/10/20 20:52:44;;;;;;;4.63;2.70;;;12.80;98.40;;;;;;10395925;28;20552;-65
2023/10/20 20:57:44;;;;;;;3.40;2.90;;;12.90;98.50;;;;;;10393693;28;20909;-64
2023/10/20 21:02:45;;;;;;;3.47;2.93;;;12.90;98.50;;;;;;10400922;28;20498;-65
2023/10/20 21:07:46;;;;;;;3.17;2.80;;;12.90;98.50;;;;;;10404521;28;20422;-64
2023/10/20 21:12:46;;;;;;;3.53;3.00;;;12.90;98.40;;;;;;10405468;28;20426;-65
2023/10/20 21:17:47;;;;;;;3.83;3.05;;;12.90;98.40;;;;;;10407849;28;20920;-65
2023/10/20 21:22:53;;;;;;;3.50;3.10;;;12.90;98.40;;;;;;10406044;28;20437;-64
2023/10/20 21:27:53;;;;;;;4.07;3.42;;;13.00;98.40;;;;;;10402346;28;20463;-65
2023/10/20 21:32:54;;;;;;;3.83;3.13;;;13.00;98.40;;;;;;10408521;28;20416;-64
2023/10/20 21:37:54;;;;;;;5.53;3.30;;;13.00;98.40;;;;;;10402039;28;20411;-64
2023/10/20 21:42:55;;;;;;;4.23;3.40;;;13.00;98.40;;;;;;10402689;28;20513;-64
2023/10/20 21:47:56;;;;;;;4.03;3.30;;;13.00;98.50;;;;;;10401400;28;20443;-64
2023/10/20 21:52:57;;;;;;;4.70;3.80;;;13.10;98.60;;;;;;10395771;28;20922;-64
2023/10/20 21:57:58;;;;;;;4.60;3.60;;;13.10;98.60;;;;;;10399584;28;20910;-65
2023/10/20 22:02:58;;;;;;;5.57;4.20;;;13.10;98.70;;;;;;10390768;28;20436;-65
2023/10/20 22:07:59;;;;;;;5.30;4.13;;;13.60;98.90;;;;;;10389340;28;20496;-65
2023/10/20 22:13:00;;;;;;;5.70;3.93;;;13.10;98.80;;;;;;10391579;28;20422;-65
2023/10/20 22:18:00;;;;;;;5.25;4.25;;;13.20;98.80;;;;;;10398249;28;20815;-65
2023/10/20 22:23:01;;;;;;;5.97;4.27;;;13.20;98.90;;;;;;10400503;28;20877;-64
2023/10/20 22:28:02;;;;;;;5.57;4.40;;;13.20;99.00;;;;;;10414287;28;20410;-65
2023/10/20 22:33:03;;;;;;;6.97;5.15;;;13.20;99.10;;;;;;10402935;28;20916;-64
2023/10/20 22:38:03;;;;;;;6.45;4.65;;;13.30;99.70;;;;;;10395500;28;20403;-64
2023/10/20 22:43:04;;;;;;;6.43;4.70;;;13.30;99.60;;;;;;10403628;28;20422;-64
2023/10/20 22:48:05;;;;;;;6.40;4.63;;;13.30;99.70;;;;;;10394208;28;20405;-65
2023/10/20 22:53:05;;;;;;;8.23;5.10;;;13.30;99.90;;;;;;10407950;28;21103;-64
2023/10/20 22:58:06;;;;;;;6.00;4.77;;;13.40;99.90;;;;;;10403765;28;20410;-65
2023/10/20 23:03:07;;;;;;;6.82;4.75;;;13.40;99.90;;;;;;10401461;28;20419;-64
2023/10/20 23:08:07;;;;;;;6.00;4.60;;;13.40;99.90;;;;;;10426460;28;20409;-64
2023/10/20 23:13:08;;;;;;;6.80;4.40;;;13.40;99.90;;;;;;10395083;28;20556;-64
2023/10/20 23:18:09;;;;;;;6.45;4.65;;;13.40;99.90;;;;;;10405057;28;20879;-65
2023/10/20 23:23:09;;;;;;;5.27;4.10;;;13.40;99.90;;;;;;10400981;28;20421;-64
2023/10/20 23:28:10;;;;;;;5.65;4.35;;;13.50;99.80;;;;;;10399324;28;20803;-65
2023/10/20 23:33:10;;;;;;;5.27;4.27;;;13.50;99.70;;;;;;10398188;28;20997;-65
2023/10/20 23:38:11;;;;;;;6.60;4.40;;;13.50;99.70;;;;;;10406397;28;20782;-63
2023/10/20 23:43:12;;;;;;;5.80;4.20;;;14.00;99.80;;;;;;10404626;28;20415;-65
2023/10/20 23:48:12;;;;;;;6.18;4.10;;;13.50;99.80;;;;;;10407786;28;20478;-64
2023/10/20 23:53:13;;;;;;;4.87;3.93;;;13.50;99.80;;;;;;10402852;28;20416;-64
2023/10/20 23:58:13;;;;;;;5.10;4.10;;;13.50;99.90;;;;;;10419100;28;20460;-65
